• Join FlightAware (Why Join?)
  • Login
  • US Flag 
04:21PM EDT


 

Airport Tracker/Info


-or-


 

Live Flight TrackerFlight Track Log ✈ SWA943 ✈ 09-May-2013 ✈ KLAS - KOMA

Flight Track Log - Related Links

Times and Time Zones

All times are in EDT time to prevent confusion due to time zone crossing. See the SWA943 flight status page for this flight to view local times or setup timezone preferences in your user account.

Time Position Orientation Groundspeed Altitude Reporting Facility
EDT Latitude Longitude Course Direction KTS MPH feet Rate Location/Type
05:04PM 36.1053 -115.1533 52° Northeast 148 170 3,000  Level Los Angeles Center
05:04PM 36.1311 -115.1128 52° Northeast 204 235 4,300 1,980 Climbing Los Angeles Center
05:05PM 36.1381 -115.0358 84° East 261 300 6,500 2,280 Climbing Los Angeles Center
05:06PM 36.1408 -115.0089 83° East 257 296 7,300 3,120 Climbing Los Angeles Center
05:06PM 36.1447 -114.9483 85° East 281 323 9,400 2,460 Climbing Los Angeles Center
05:07PM 36.1464 -114.9322 83° East 271 312 9,900 2,220 Climbing Los Angeles Center
05:08PM 36.1561 -114.7975 85° East 331 381 12,800 2,820 Climbing Los Angeles Center
05:09PM 36.1642 -114.6733 85° East 360 414 15,800 3,240 Climbing Los Angeles Center
05:10PM 36.1744 -114.5208 85° East 370 426 19,600 3,000 Climbing Los Angeles Center
05:11PM 36.1831 -114.3903 85° East 380 437 22,100 2,340 Climbing Los Angeles Center
05:12PM 36.1911 -114.2547 86° East 393 452 24,500 2,460 Climbing Los Angeles Center
05:13PM 36.2078 -114.1200 81° East 396 456 27,300 2,040 Climbing Los Angeles Center
05:14PM 36.2236 -113.9925 81° East 379 436 28,800 1,440 Climbing Los Angeles Center
05:15PM 36.2436 -113.8250 82° East 407 468 30,300 1,380 Climbing Los Angeles Center
05:16PM 36.2558 -113.7125 82° East 412 474 31,700 1,860 Climbing Los Angeles Center
05:17PM 36.2750 -113.5497 82° East 401 461 34,200 1,620 Climbing Los Angeles Center
05:18PM 36.3036 -113.4206 75° East 397 457 35,100 720 Climbing Los Angeles Center
05:19PM 36.3508 -113.2922 65° Northeast 407 468 35,800 600 Climbing Los Angeles Center
05:20PM 36.4064 -113.1392 66° East 426 490 36,400 540 Climbing Los Angeles Center
05:21PM 36.4586 -113.0019 65° Northeast 438 504 37,000 240 Climbing Los Angeles Center
05:22PM 36.5103 -112.8611 65° Northeast 447 514 37,000  Level Los Angeles Center
05:23PM 36.5594 -112.7236 66° East 443 510 37,000  Level Los Angeles Center
05:24PM 36.6103 -112.5867 65° Northeast 439 505 37,000  Level Los Angeles Center
05:25PM 36.6697 -112.4219 66° East 438 504 37,000  Level Los Angeles Center
05:26PM 36.7197 -112.2842 66° East 438 504 37,000  Level Los Angeles Center
05:27PM 36.7703 -112.1456 65° Northeast 440 506 37,000  Level Los Angeles Center
05:28PM 36.7900 -112.0906 66° East 440 506 37,000 120 Level Denver Center
05:29PM 36.8408 -111.9519 65° Northeast 441 507 37,200 540 Climbing Denver Center
05:31PM 36.9292 -111.6997 66° East 445 512 38,500 780 Climbing Los Angeles Center
05:31PM 36.9497 -111.6428 66° East 445 512 38,900 300 Climbing Denver Center
05:32PM 37.0008 -111.5003 66° East 449 517 39,000  Climbing Denver Center
05:33PM 37.0481 -111.3597 67° East 444 511 39,000  Level Denver Center
05:34PM 37.0975 -111.2206 66° East 440 506 39,000  Level Denver Center
05:35PM 37.1458 -111.0792 67° East 443 510 39,000  Level Denver Center
05:36PM 37.2042 -110.9106 66° East 441 507 39,000  Level Denver Center
05:37PM 37.2536 -110.7686 66° East 445 512 39,000  Level Denver Center
05:38PM 37.3011 -110.6272 67° East 443 510 39,000  Level Denver Center
05:39PM 37.3500 -110.4853 67° East 444 511 39,000  Level Denver Center
05:40PM 37.3978 -110.3428 67° East 444 511 39,000  Level Denver Center
05:41PM 37.4511 -110.1839 67° East 444 511 39,000  Level Denver Center
05:42PM 37.4978 -110.0447 67° East 448 516 39,000  Level Denver Center
05:43PM 37.5508 -109.8847 67° East 444 511 39,000  Level Denver Center
05:44PM 37.5972 -109.7472 67° East 445 512 39,000  Level Denver Center
05:45PM 37.6494 -109.5881 67° East 440 506 39,000  Level Denver Center
05:46PM 37.6939 -109.4514 68° East 440 506 39,000  Level Denver Center
05:48PM 37.7458 -109.2928 67° East 437 503 39,000  Level Denver Center
05:49PM 37.7903 -109.1556 68° East 439 505 39,000  Level Denver Center
05:50PM 37.8422 -108.9972 67° East 436 502 39,000  Level Denver Center
05:51PM 37.8858 -108.8614 68° East 435 501 39,000  Level Denver Center
05:52PM 37.9369 -108.6997 68° East 440 506 39,000  Level Denver Center
05:53PM 37.9806 -108.5644 68° East 436 502 39,000  Level Denver Center
05:54PM 38.0308 -108.4067 68° East 433 498 39,000  Level Denver Center
05:55PM 38.0758 -108.2636 68° East 444 511 39,000  Level Denver Center
05:56PM 38.1189 -108.1236 69° East 447 514 39,000  Level Denver Center
05:57PM 38.1706 -107.9625 68° East 443 510 39,000  Level Denver Center
05:58PM 38.2133 -107.8219 69° East 446 513 39,000  Level Denver Center
05:59PM 38.2628 -107.6614 69° East 442 509 39,000  Level Denver Center
06:00PM 38.3056 -107.5228 68° East 441 507 39,000  Level Denver Center
06:01PM 38.3556 -107.3586 69° East 444 511 39,000  Level Denver Center
06:02PM 38.3986 -107.2181 69° East 445 512 39,000  Level Denver Center
06:03PM 38.4483 -107.0578 68° East 444 511 39,000  Level Denver Center
06:04PM 38.5139 -106.9242 58° Northeast 444 511 39,000  Level Denver Center
06:05PM 38.5831 -106.7928 56° Northeast 445 512 39,000  Level Denver Center
06:06PM 38.6519 -106.6622 56° Northeast 446 513 39,000  Level Denver Center
06:07PM 38.7197 -106.5311 56° Northeast 444 511 39,000  Level Denver Center
06:08PM 38.8006 -106.3778 56° Northeast 437 503 39,000  Level Denver Center
06:09PM 38.8675 -106.2475 57° Northeast 439 505 39,000  Level Denver Center
06:10PM 38.9342 -106.1172 57° Northeast 439 505 39,000  Level Denver Center
06:11PM 39.0031 -105.9844 56° Northeast 443 510 39,000  Level Denver Center
06:12PM 39.0711 -105.8547 56° Northeast 442 509 39,000  Level Denver Center
06:13PM 39.1408 -105.7156 57° Northeast 442 509 39,000  Level Denver Center
06:14PM 39.2183 -105.5656 56° Northeast 439 505 39,000  Level Denver Center
06:15PM 39.2883 -105.4294 56° Northeast 450 518 39,000  Level Denver Center
06:16PM 39.3544 -105.2939 58° Northeast 448 516 39,000  Level Denver Center
06:18PM 39.4289 -105.1503 56° Northeast 448 516 39,000  Level Denver Center
06:19PM 39.4944 -105.0128 58° Northeast 449 517 39,000  Level Denver Center
06:20PM 39.5683 -104.8678 57° Northeast 449 517 39,000  Level Denver Center
06:21PM 39.6247 -104.7247 63° Northeast 450 518 39,000  Level Denver Center
06:22PM 39.6669 -104.5592 72° East 453 521 39,000  Level Denver Center
06:23PM 39.7067 -104.4067 71° East 451 519 39,000  Level Denver Center
06:24PM 39.7492 -104.2403 72° East 452 520 39,000  Level Denver Center
06:25PM 39.7903 -104.0850 71° East 455 524 39,000  Level Denver Center
06:26PM 39.8311 -103.9169 72° East 455 524 39,000  Level Denver Center
06:27PM 39.8728 -103.7608 71° East 458 527 39,000  Level Denver Center
06:28PM 39.9117 -103.6028 72° East 441 507 39,000  Level Denver Center
06:29PM 39.9528 -103.4350 72° East 453 521 39,000  Level Denver Center
06:30PM 39.9903 -103.2858 72° East 453 521 39,000  Level Denver Center
06:31PM 40.0325 -103.1106 72° East 454 522 39,000 -480 Level Denver Center
06:32PM 40.0689 -102.9625 72° East 451 519 38,100 -900 Descending Denver Center
06:33PM 40.1042 -102.8189 72° East 437 503 37,200 -540 Descending Denver Center
06:34PM 40.1444 -102.6517 72° East 434 499 37,000 -120 Descending Denver Center
06:35PM 40.1786 -102.5092 73° East 432 497 37,000  Level Denver Center
06:36PM 40.2181 -102.3403 73° East 436 502 37,000  Level Denver Center
06:37PM 40.2533 -102.1969 72° East 434 499 37,000  Level Denver Center
06:38PM 40.2933 -102.0267 73° East 438 504 37,000  Level Denver Center
06:39PM 40.3258 -101.8814 74° East 436 502 37,000  Level Denver Center
06:40PM 40.3658 -101.7106 73° East 439 505 37,000  Level Denver Center
06:41PM 40.3994 -101.5647 73° East 438 504 37,000  Level Denver Center
06:42PM 40.4381 -101.3950 73° East 435 501 37,000  Level Denver Center
06:43PM 40.4706 -101.2508 73° East 433 498 37,000  Level Denver Center
06:44PM 40.5089 -101.0825 73° East 433 498 37,000  Level Denver Center
06:45PM 40.5406 -100.9392 74° East 431 496 37,000  Level Denver Center
06:46PM 40.5769 -100.7711 74° East 431 496 37,000  Level Denver Center
06:47PM 40.6086 -100.6283 74° East 431 496 37,000  Level Denver Center
06:49PM 40.6453 -100.4619 74° East 429 494 37,000  Level Denver Center
06:50PM 40.6767 -100.3200 74° East 426 490 37,000  Level Denver Center
06:51PM 40.7181 -100.1278 74° East 429 494 37,000  Level Denver Center
06:52PM 40.7539 -99.9578 74° East 434 499 37,000  Level Denver Center
06:53PM 40.7842 -99.8150 74° East 433 498 37,000  Level Denver Center
06:54PM 40.8161 -99.6628 74° East 432 497 37,000  Level Denver Center
06:55PM 40.8489 -99.5094 74° East 434 499 37,000  Level Denver Center
06:56PM 40.8867 -99.3258 75° East 433 498 37,000  Level Denver Center
06:57PM 40.9183 -99.1722 75° East 434 499 37,000  Level Denver Center
06:57PM 40.9300 -99.1172 74° East 434 499 37,000  Level Minneapolis Center
06:59PM 40.9600 -98.9639 75° East 432 497 37,000  Level Minneapolis Center
07:00PM 40.9978 -98.7789 75° East 434 499 37,000  Level Minneapolis Center
07:01PM 41.0292 -98.6236 75° East 437 503 37,000  Level Minneapolis Center
07:02PM 41.0597 -98.4681 75° East 437 503 37,000 -180 Level Minneapolis Center
07:03PM 41.0894 -98.3186 75° East 436 502 36,700 -1,320 Descending Minneapolis Center
07:04PM 41.1194 -98.1653 75° East 433 498 34,300 -2,400 Descending Minneapolis Center
07:05PM 41.1539 -97.9828 76° East 427 491 31,800 -2,280 Descending Minneapolis Center
07:06PM 41.1828 -97.8358 75° East 418 481 29,700 -1,860 Descending Minneapolis Center
07:07PM 41.2050 -97.7194 76° East 412 474 28,100 -1,980 Descending Minneapolis Center
07:08PM 41.2375 -97.5483 76° East 402 463 25,700 -2,100 Descending Minneapolis Center
07:09PM 41.2642 -97.4092 76° East 393 452 23,800 -1,920 Descending Minneapolis Center
07:10PM 41.2903 -97.2667 76° East 386 444 21,800 -1,860 Descending Minneapolis Center
07:11PM 41.3142 -97.1353 76° East 371 427 20,000 -1,980 Descending Minneapolis Center
07:11PM 41.3178 -97.0514 87° East 357 411 18,800 -2,160 Descending Minneapolis Center
07:12PM 41.3431 -96.9817 64° Northeast 359 413 17,800 -1,920 Descending Minneapolis Center
07:13PM 41.3653 -96.8575 77° East 350 403 15,900 -1,920 Descending Minneapolis Center
07:14PM 41.3325 -96.7256 108° East 340 391 13,800 -1,860 Descending Minneapolis Center
07:15PM 41.3150 -96.6081 101° East 333 383 12,000 -1,680 Descending Minneapolis Center
07:16PM 41.2953 -96.4908 103° East 325 374 10,400 -1,380 Descending Minneapolis Center
07:17PM 41.2753 -96.3683 102° East 290 334 9,200 -1,260 Descending Minneapolis Center
07:18PM 41.2547 -96.2736 106° East 290 334 7,900 -1,380 Descending Minneapolis Center
07:19PM 41.2222 -96.1747 114° Southeast 290 334 6,500 -1,380 Descending Minneapolis Center
07:20PM 41.1867 -96.0819 117° Southeast 287 330 5,100 -1,020 Descending Minneapolis Center
07:21PM 41.1489 -95.9917 119° Southeast 259 298 4,500 -540 Descending Minneapolis Center
07:22PM 41.1158 -95.9042 117° Southeast 227 261 4,000 -420 Descending Minneapolis Center
07:23PM 41.1156 -95.8378 90° East 213 245 3,700 -480 Descending Minneapolis Center
07:24PM 41.1219 -95.8142 70° East 224 258 3,500 -660 Descending Minneapolis Center
07:24PM 41.1511 -95.7728 47° Northeast 199 229 3,000 -540 Descending Minneapolis Center
07:25PM 41.1617 -95.7694 13° North 205 236 3,000  Level Minneapolis Center
07:25PM 41.2056 -95.8053 328° Northwest 194 223 3,000 -480 Level Minneapolis Center
07:26PM 41.2436 -95.8422 324° Northwest 163 188 2,200 -720 Descending Minneapolis Center
07:27PM 41.2494 -95.8453 339° North 192 221 2,100 -840 Descending Minneapolis Center
07:27PM 41.2747 -95.8719 322° Northwest 122 140 1,400 -780 Descending Minneapolis Center
07:28PM 41.2783 -95.8725 353° North 157 181 1,300 -420 Descending Minneapolis Center